sensor_id;sensor_type;location;lat;lon;timestamp;P1;durP1;ratioP1;P2;durP2;ratioP2
6414;SDS011;3240;48.790;9.210;2022-08-25T00:01:01;7.20;;;3.60;;
6414;SDS011;3240;48.790;9.210;2022-08-25T00:03:29;4.73;;;3.43;;
6414;SDS011;3240;48.790;9.210;2022-08-25T00:05:58;5.30;;;3.78;;
6414;SDS011;3240;48.790;9.210;2022-08-25T00:08:26;3.87;;;3.13;;
6414;SDS011;3240;48.790;9.210;2022-08-25T00:10:54;5.20;;;3.10;;
6414;SDS011;3240;48.790;9.210;2022-08-25T00:13:23;4.80;;;3.10;;
6414;SDS011;3240;48.790;9.210;2022-08-25T00:15:51;6.17;;;4.23;;
6414;SDS011;3240;48.790;9.210;2022-08-25T00:18:19;6.13;;;3.90;;
6414;SDS011;3240;48.790;9.210;2022-08-25T00:20:48;3.57;;;2.93;;
6414;SDS011;3240;48.790;9.210;2022-08-25T00:23:16;5.17;;;3.90;;
6414;SDS011;3240;48.790;9.210;2022-08-25T00:25:44;6.10;;;3.20;;
6414;SDS011;3240;48.790;9.210;2022-08-25T00:28:13;3.67;;;3.37;;
6414;SDS011;3240;48.790;9.210;2022-08-25T00:30:41;4.53;;;3.33;;
6414;SDS011;3240;48.790;9.210;2022-08-25T00:33:09;10.90;;;4.60;;
6414;SDS011;3240;48.790;9.210;2022-08-25T00:35:39;7.37;;;4.20;;
6414;SDS011;3240;48.790;9.210;2022-08-25T00:38:07;4.90;;;4.00;;
6414;SDS011;3240;48.790;9.210;2022-08-25T00:40:34;6.07;;;3.80;;
6414;SDS011;3240;48.790;9.210;2022-08-25T00:43:03;6.83;;;4.40;;
6414;SDS011;3240;48.790;9.210;2022-08-25T00:45:32;5.10;;;3.70;;
6414;SDS011;3240;48.790;9.210;2022-08-25T00:47:59;7.60;;;4.80;;
6414;SDS011;3240;48.790;9.210;2022-08-25T00:50:28;6.67;;;3.93;;
6414;SDS011;3240;48.790;9.210;2022-08-25T00:52:57;6.70;;;4.43;;
6414;SDS011;3240;48.790;9.210;2022-08-25T00:55:27;7.10;;;4.20;;
6414;SDS011;3240;48.790;9.210;2022-08-25T00:57:56;6.17;;;4.60;;
6414;SDS011;3240;48.790;9.210;2022-08-25T01:00:26;4.80;;;4.07;;
6414;SDS011;3240;48.790;9.210;2022-08-25T01:02:52;6.23;;;4.20;;
6414;SDS011;3240;48.790;9.210;2022-08-25T01:05:20;7.97;;;3.77;;
6414;SDS011;3240;48.790;9.210;2022-08-25T01:07:48;8.63;;;4.40;;
6414;SDS011;3240;48.790;9.210;2022-08-25T01:10:17;5.87;;;4.10;;
6414;SDS011;3240;48.790;9.210;2022-08-25T01:12:45;5.33;;;4.50;;
6414;SDS011;3240;48.790;9.210;2022-08-25T01:15:13;9.53;;;4.23;;
6414;SDS011;3240;48.790;9.210;2022-08-25T01:17:47;7.20;;;4.40;;
6414;SDS011;3240;48.790;9.210;2022-08-25T01:20:14;8.50;;;4.20;;
6414;SDS011;3240;48.790;9.210;2022-08-25T01:22:41;7.70;;;5.20;;
6414;SDS011;3240;48.790;9.210;2022-08-25T01:25:16;7.40;;;4.50;;
6414;SDS011;3240;48.790;9.210;2022-08-25T01:27:39;9.63;;;5.13;;
6414;SDS011;3240;48.790;9.210;2022-08-25T01:30:07;6.90;;;3.80;;
6414;SDS011;3240;48.790;9.210;2022-08-25T01:32:36;5.67;;;3.97;;
6414;SDS011;3240;48.790;9.210;2022-08-25T01:35:04;5.10;;;3.83;;
6414;SDS011;3240;48.790;9.210;2022-08-25T01:37:33;7.30;;;4.27;;
6414;SDS011;3240;48.790;9.210;2022-08-25T01:40:01;8.87;;;4.43;;
6414;SDS011;3240;48.790;9.210;2022-08-25T01:42:36;7.43;;;4.70;;
6414;SDS011;3240;48.790;9.210;2022-08-25T01:45:00;6.63;;;4.40;;
6414;SDS011;3240;48.790;9.210;2022-08-25T01:47:28;5.47;;;4.20;;
6414;SDS011;3240;48.790;9.210;2022-08-25T01:49:56;6.13;;;3.87;;
6414;SDS011;3240;48.790;9.210;2022-08-25T01:52:29;4.93;;;3.70;;
6414;SDS011;3240;48.790;9.210;2022-08-25T01:54:56;5.20;;;3.70;;
6414;SDS011;3240;48.790;9.210;2022-08-25T01:57:24;5.23;;;3.70;;
6414;SDS011;3240;48.790;9.210;2022-08-25T01:59:52;4.70;;;3.67;;
6414;SDS011;3240;48.790;9.210;2022-08-25T02:02:21;4.50;;;3.43;;
6414;SDS011;3240;48.790;9.210;2022-08-25T02:04:49;4.87;;;3.90;;
6414;SDS011;3240;48.790;9.210;2022-08-25T02:07:18;3.90;;;3.50;;
6414;SDS011;3240;48.790;9.210;2022-08-25T02:09:46;6.10;;;3.40;;
6414;SDS011;3240;48.790;9.210;2022-08-25T02:12:14;4.97;;;4.00;;
6414;SDS011;3240;48.790;9.210;2022-08-25T02:14:42;5.63;;;3.50;;
6414;SDS011;3240;48.790;9.210;2022-08-25T02:17:11;4.60;;;3.90;;
6414;SDS011;3240;48.790;9.210;2022-08-25T02:19:39;6.73;;;4.10;;
6414;SDS011;3240;48.790;9.210;2022-08-25T02:22:07;5.20;;;3.70;;
6414;SDS011;3240;48.790;9.210;2022-08-25T02:24:36;3.90;;;3.50;;
6414;SDS011;3240;48.790;9.210;2022-08-25T02:27:04;5.30;;;4.13;;
6414;SDS011;3240;48.790;9.210;2022-08-25T02:29:32;4.80;;;3.90;;
6414;SDS011;3240;48.790;9.210;2022-08-25T02:32:01;4.37;;;3.60;;
6414;SDS011;3240;48.790;9.210;2022-08-25T02:34:29;4.90;;;3.90;;
6414;SDS011;3240;48.790;9.210;2022-08-25T02:36:57;6.37;;;3.90;;
6414;SDS011;3240;48.790;9.210;2022-08-25T02:39:26;5.50;;;3.80;;
6414;SDS011;3240;48.790;9.210;2022-08-25T02:41:54;5.17;;;3.90;;
6414;SDS011;3240;48.790;9.210;2022-08-25T02:44:22;6.47;;;3.80;;
6414;SDS011;3240;48.790;9.210;2022-08-25T02:46:51;7.07;;;4.37;;
6414;SDS011;3240;48.790;9.210;2022-08-25T02:49:19;7.23;;;3.83;;
6414;SDS011;3240;48.790;9.210;2022-08-25T02:51:47;5.13;;;3.97;;
6414;SDS011;3240;48.790;9.210;2022-08-25T02:54:16;5.30;;;4.10;;
6414;SDS011;3240;48.790;9.210;2022-08-25T02:56:44;5.97;;;4.30;;
6414;SDS011;3240;48.790;9.210;2022-08-25T02:59:12;6.67;;;4.00;;
6414;SDS011;3240;48.790;9.210;2022-08-25T03:01:41;4.90;;;3.93;;
6414;SDS011;3240;48.790;9.210;2022-08-25T03:04:09;7.00;;;4.17;;
6414;SDS011;3240;48.790;9.210;2022-08-25T03:06:37;5.83;;;4.30;;
6414;SDS011;3240;48.790;9.210;2022-08-25T03:09:06;5.07;;;3.80;;
6414;SDS011;3240;48.790;9.210;2022-08-25T03:11:34;5.33;;;4.00;;
6414;SDS011;3240;48.790;9.210;2022-08-25T03:14:03;5.73;;;3.97;;
6414;SDS011;3240;48.790;9.210;2022-08-25T03:16:31;6.67;;;4.10;;
6414;SDS011;3240;48.790;9.210;2022-08-25T03:18:59;4.63;;;4.10;;
6414;SDS011;3240;48.790;9.210;2022-08-25T03:21:28;4.33;;;3.50;;
6414;SDS011;3240;48.790;9.210;2022-08-25T03:23:56;5.50;;;3.93;;
6414;SDS011;3240;48.790;9.210;2022-08-25T03:26:24;7.30;;;3.87;;
6414;SDS011;3240;48.790;9.210;2022-08-25T03:28:59;4.87;;;3.97;;
6414;SDS011;3240;48.790;9.210;2022-08-25T03:31:26;5.23;;;3.80;;
6414;SDS011;3240;48.790;9.210;2022-08-25T03:33:55;4.27;;;3.77;;
6414;SDS011;3240;48.790;9.210;2022-08-25T03:36:23;6.70;;;4.17;;
6414;SDS011;3240;48.790;9.210;2022-08-25T03:38:52;6.23;;;3.80;;
6414;SDS011;3240;48.790;9.210;2022-08-25T03:41:23;6.03;;;4.30;;
6414;SDS011;3240;48.790;9.210;2022-08-25T03:43:50;5.23;;;4.00;;
6414;SDS011;3240;48.790;9.210;2022-08-25T03:46:19;6.80;;;5.40;;
6414;SDS011;3240;48.790;9.210;2022-08-25T03:48:47;6.00;;;4.20;;
6414;SDS011;3240;48.790;9.210;2022-08-25T03:51:20;8.90;;;4.60;;
6414;SDS011;3240;48.790;9.210;2022-08-25T03:53:47;5.90;;;4.23;;
6414;SDS011;3240;48.790;9.210;2022-08-25T03:56:15;5.45;;;3.90;;
6414;SDS011;3240;48.790;9.210;2022-08-25T03:58:44;9.80;;;4.63;;
6414;SDS011;3240;48.790;9.210;2022-08-25T04:01:13;7.60;;;3.80;;
6414;SDS011;3240;48.790;9.210;2022-08-25T04:03:40;5.63;;;4.10;;
6414;SDS011;3240;48.790;9.210;2022-08-25T04:06:09;6.43;;;3.90;;
6414;SDS011;3240;48.790;9.210;2022-08-25T04:08:37;5.50;;;4.23;;
6414;SDS011;3240;48.790;9.210;2022-08-25T04:11:14;5.27;;;4.57;;
6414;SDS011;3240;48.790;9.210;2022-08-25T04:13:44;5.70;;;4.17;;
6414;SDS011;3240;48.790;9.210;2022-08-25T04:16:13;6.17;;;4.40;;
6414;SDS011;3240;48.790;9.210;2022-08-25T04:18:41;11.17;;;4.70;;
6414;SDS011;3240;48.790;9.210;2022-08-25T04:21:09;6.90;;;4.87;;
6414;SDS011;3240;48.790;9.210;2022-08-25T04:23:38;8.33;;;4.67;;
6414;SDS011;3240;48.790;9.210;2022-08-25T04:26:11;7.17;;;5.27;;
6414;SDS011;3240;48.790;9.210;2022-08-25T04:28:38;9.47;;;5.40;;
6414;SDS011;3240;48.790;9.210;2022-08-25T04:31:07;6.47;;;4.97;;
6414;SDS011;3240;48.790;9.210;2022-08-25T04:33:35;6.17;;;5.00;;
6414;SDS011;3240;48.790;9.210;2022-08-25T04:36:03;6.97;;;5.30;;
6414;SDS011;3240;48.790;9.210;2022-08-25T04:38:32;9.00;;;5.40;;
6414;SDS011;3240;48.790;9.210;2022-08-25T04:41:01;6.97;;;4.50;;
6414;SDS011;3240;48.790;9.210;2022-08-25T04:43:28;7.83;;;5.10;;
6414;SDS011;3240;48.790;9.210;2022-08-25T04:45:56;7.20;;;5.23;;
6414;SDS011;3240;48.790;9.210;2022-08-25T04:48:25;7.73;;;5.30;;
6414;SDS011;3240;48.790;9.210;2022-08-25T04:50:53;9.67;;;5.33;;
6414;SDS011;3240;48.790;9.210;2022-08-25T04:53:21;9.40;;;5.20;;
6414;SDS011;3240;48.790;9.210;2022-08-25T04:55:50;10.23;;;4.73;;
6414;SDS011;3240;48.790;9.210;2022-08-25T04:58:18;8.93;;;5.50;;
6414;SDS011;3240;48.790;9.210;2022-08-25T05:00:46;7.50;;;5.07;;
6414;SDS011;3240;48.790;9.210;2022-08-25T05:03:15;8.40;;;5.17;;
6414;SDS011;3240;48.790;9.210;2022-08-25T05:05:43;9.00;;;5.77;;
6414;SDS011;3240;48.790;9.210;2022-08-25T05:08:11;6.03;;;4.90;;
6414;SDS011;3240;48.790;9.210;2022-08-25T05:10:40;9.17;;;5.80;;
6414;SDS011;3240;48.790;9.210;2022-08-25T05:13:08;6.82;;;5.35;;
6414;SDS011;3240;48.790;9.210;2022-08-25T05:15:36;10.20;;;6.40;;
6414;SDS011;3240;48.790;9.210;2022-08-25T05:18:10;8.03;;;5.40;;
6414;SDS011;3240;48.790;9.210;2022-08-25T05:20:39;8.70;;;5.70;;
6414;SDS011;3240;48.790;9.210;2022-08-25T05:23:07;10.07;;;5.07;;
6414;SDS011;3240;48.790;9.210;2022-08-25T05:25:36;8.70;;;5.70;;
6414;SDS011;3240;48.790;9.210;2022-08-25T05:28:04;9.67;;;6.37;;
6414;SDS011;3240;48.790;9.210;2022-08-25T05:30:32;14.27;;;6.00;;
6414;SDS011;3240;48.790;9.210;2022-08-25T05:33:00;10.90;;;6.30;;
6414;SDS011;3240;48.790;9.210;2022-08-25T05:35:29;7.63;;;5.50;;
6414;SDS011;3240;48.790;9.210;2022-08-25T05:37:57;16.10;;;5.50;;
6414;SDS011;3240;48.790;9.210;2022-08-25T05:40:25;8.77;;;5.93;;
6414;SDS011;3240;48.790;9.210;2022-08-25T05:42:54;8.50;;;5.53;;
6414;SDS011;3240;48.790;9.210;2022-08-25T05:45:22;8.77;;;6.20;;
6414;SDS011;3240;48.790;9.210;2022-08-25T05:47:50;9.53;;;6.00;;
6414;SDS011;3240;48.790;9.210;2022-08-25T05:50:19;9.57;;;6.87;;
6414;SDS011;3240;48.790;9.210;2022-08-25T05:52:47;10.97;;;5.60;;
6414;SDS011;3240;48.790;9.210;2022-08-25T05:55:15;10.60;;;6.20;;
6414;SDS011;3240;48.790;9.210;2022-08-25T05:57:44;9.73;;;6.13;;
6414;SDS011;3240;48.790;9.210;2022-08-25T06:00:12;9.13;;;5.87;;
6414;SDS011;3240;48.790;9.210;2022-08-25T06:02:41;9.50;;;6.23;;
6414;SDS011;3240;48.790;9.210;2022-08-25T06:05:13;9.87;;;6.00;;
6414;SDS011;3240;48.790;9.210;2022-08-25T06:07:40;7.17;;;6.40;;
6414;SDS011;3240;48.790;9.210;2022-08-25T06:10:09;11.90;;;7.00;;
6414;SDS011;3240;48.790;9.210;2022-08-25T06:12:39;7.77;;;5.77;;
6414;SDS011;3240;48.790;9.210;2022-08-25T06:15:07;8.23;;;6.00;;
6414;SDS011;3240;48.790;9.210;2022-08-25T06:17:36;14.43;;;6.90;;
6414;SDS011;3240;48.790;9.210;2022-08-25T06:20:04;7.90;;;6.37;;
6414;SDS011;3240;48.790;9.210;2022-08-25T06:22:32;9.70;;;6.40;;
6414;SDS011;3240;48.790;9.210;2022-08-25T06:25:01;8.20;;;6.80;;
6414;SDS011;3240;48.790;9.210;2022-08-25T06:27:29;8.90;;;6.00;;
6414;SDS011;3240;48.790;9.210;2022-08-25T06:29:57;9.70;;;6.53;;
6414;SDS011;3240;48.790;9.210;2022-08-25T06:32:26;11.80;;;6.20;;
6414;SDS011;3240;48.790;9.210;2022-08-25T06:34:54;8.83;;;6.27;;
6414;SDS011;3240;48.790;9.210;2022-08-25T06:37:22;12.80;;;6.93;;
6414;SDS011;3240;48.790;9.210;2022-08-25T06:39:51;8.73;;;6.20;;
6414;SDS011;3240;48.790;9.210;2022-08-25T06:42:19;9.40;;;5.60;;
6414;SDS011;3240;48.790;9.210;2022-08-25T06:44:47;11.20;;;6.27;;
6414;SDS011;3240;48.790;9.210;2022-08-25T06:47:16;14.10;;;6.30;;
6414;SDS011;3240;48.790;9.210;2022-08-25T06:49:44;10.10;;;6.40;;
6414;SDS011;3240;48.790;9.210;2022-08-25T06:52:13;10.23;;;6.33;;
6414;SDS011;3240;48.790;9.210;2022-08-25T06:54:41;15.07;;;7.37;;
6414;SDS011;3240;48.790;9.210;2022-08-25T06:57:09;9.87;;;6.30;;
6414;SDS011;3240;48.790;9.210;2022-08-25T06:59:37;10.43;;;6.60;;
6414;SDS011;3240;48.790;9.210;2022-08-25T07:02:06;8.97;;;6.20;;
6414;SDS011;3240;48.790;9.210;2022-08-25T07:04:35;9.47;;;7.20;;
6414;SDS011;3240;48.790;9.210;2022-08-25T07:07:03;13.50;;;5.57;;
6414;SDS011;3240;48.790;9.210;2022-08-25T07:09:31;6.87;;;5.23;;
6414;SDS011;3240;48.790;9.210;2022-08-25T07:11:59;8.60;;;5.60;;
6414;SDS011;3240;48.790;9.210;2022-08-25T07:14:27;6.87;;;5.70;;
6414;SDS011;3240;48.790;9.210;2022-08-25T07:16:56;10.17;;;6.70;;
6414;SDS011;3240;48.790;9.210;2022-08-25T07:19:24;7.20;;;5.90;;
6414;SDS011;3240;48.790;9.210;2022-08-25T07:21:52;9.53;;;5.77;;
6414;SDS011;3240;48.790;9.210;2022-08-25T07:24:21;6.03;;;5.07;;
6414;SDS011;3240;48.790;9.210;2022-08-25T07:26:49;9.93;;;6.47;;
6414;SDS011;3240;48.790;9.210;2022-08-25T07:29:18;9.70;;;6.07;;
6414;SDS011;3240;48.790;9.210;2022-08-25T07:31:46;8.15;;;6.50;;
6414;SDS011;3240;48.790;9.210;2022-08-25T07:34:14;11.93;;;7.33;;
6414;SDS011;3240;48.790;9.210;2022-08-25T07:36:48;10.83;;;5.73;;
6414;SDS011;3240;48.790;9.210;2022-08-25T07:39:16;7.90;;;6.10;;
6414;SDS011;3240;48.790;9.210;2022-08-25T07:41:45;9.93;;;5.60;;
6414;SDS011;3240;48.790;9.210;2022-08-25T07:44:13;7.40;;;5.63;;
6414;SDS011;3240;48.790;9.210;2022-08-25T07:46:41;10.60;;;6.23;;
6414;SDS011;3240;48.790;9.210;2022-08-25T07:49:10;7.20;;;5.87;;
6414;SDS011;3240;48.790;9.210;2022-08-25T07:51:38;10.47;;;7.27;;
6414;SDS011;3240;48.790;9.210;2022-08-25T07:54:07;11.90;;;6.43;;
6414;SDS011;3240;48.790;9.210;2022-08-25T07:56:35;10.50;;;6.50;;
6414;SDS011;3240;48.790;9.210;2022-08-25T07:59:03;10.40;;;5.80;;
6414;SDS011;3240;48.790;9.210;2022-08-25T08:01:32;6.87;;;5.30;;
6414;SDS011;3240;48.790;9.210;2022-08-25T08:04:00;12.30;;;7.03;;
6414;SDS011;3240;48.790;9.210;2022-08-25T08:06:28;11.70;;;6.80;;
6414;SDS011;3240;48.790;9.210;2022-08-25T08:08:57;8.40;;;6.50;;
6414;SDS011;3240;48.790;9.210;2022-08-25T08:11:27;8.97;;;5.50;;
6414;SDS011;3240;48.790;9.210;2022-08-25T08:13:54;11.30;;;7.00;;
6414;SDS011;3240;48.790;9.210;2022-08-25T08:16:23;9.67;;;6.00;;
6414;SDS011;3240;48.790;9.210;2022-08-25T08:18:51;8.63;;;5.90;;
6414;SDS011;3240;48.790;9.210;2022-08-25T08:21:21;7.03;;;5.93;;
6414;SDS011;3240;48.790;9.210;2022-08-25T08:23:48;7.83;;;6.40;;
6414;SDS011;3240;48.790;9.210;2022-08-25T08:26:16;7.53;;;5.63;;
6414;SDS011;3240;48.790;9.210;2022-08-25T08:28:44;9.17;;;5.83;;
6414;SDS011;3240;48.790;9.210;2022-08-25T08:31:12;6.67;;;5.83;;
6414;SDS011;3240;48.790;9.210;2022-08-25T08:33:41;11.10;;;5.87;;
6414;SDS011;3240;48.790;9.210;2022-08-25T08:36:09;7.13;;;6.07;;
6414;SDS011;3240;48.790;9.210;2022-08-25T08:38:38;8.33;;;6.70;;
6414;SDS011;3240;48.790;9.210;2022-08-25T08:41:16;7.27;;;5.87;;
6414;SDS011;3240;48.790;9.210;2022-08-25T08:44:02;7.17;;;5.37;;
6414;SDS011;3240;48.790;9.210;2022-08-25T08:46:30;7.53;;;4.93;;
6414;SDS011;3240;48.790;9.210;2022-08-25T08:48:59;5.70;;;4.93;;
6414;SDS011;3240;48.790;9.210;2022-08-25T08:51:27;7.20;;;5.30;;
6414;SDS011;3240;48.790;9.210;2022-08-25T08:53:54;8.10;;;5.80;;
6414;SDS011;3240;48.790;9.210;2022-08-25T08:56:22;6.30;;;4.93;;
6414;SDS011;3240;48.790;9.210;2022-08-25T08:58:52;6.07;;;4.73;;
6414;SDS011;3240;48.790;9.210;2022-08-25T09:01:28;8.57;;;4.87;;
6414;SDS011;3240;48.790;9.210;2022-08-25T09:04:02;5.30;;;4.57;;
6414;SDS011;3240;48.790;9.210;2022-08-25T09:06:31;6.50;;;4.73;;
6414;SDS011;3240;48.790;9.210;2022-08-25T09:09:01;5.90;;;4.90;;
6414;SDS011;3240;48.790;9.210;2022-08-25T09:11:36;9.20;;;5.00;;
6414;SDS011;3240;48.790;9.210;2022-08-25T09:14:07;7.93;;;4.87;;
6414;SDS011;3240;48.790;9.210;2022-08-25T09:16:33;8.00;;;5.47;;
6414;SDS011;3240;48.790;9.210;2022-08-25T09:19:12;7.77;;;5.43;;
6414;SDS011;3240;48.790;9.210;2022-08-25T09:21:51;9.20;;;5.10;;
6414;SDS011;3240;48.790;9.210;2022-08-25T09:24:28;7.13;;;5.33;;
6414;SDS011;3240;48.790;9.210;2022-08-25T09:27:01;6.43;;;5.05;;
6414;SDS011;3240;48.790;9.210;2022-08-25T09:29:23;5.90;;;4.67;;
6414;SDS011;3240;48.790;9.210;2022-08-25T09:31:52;7.80;;;4.77;;
6414;SDS011;3240;48.790;9.210;2022-08-25T09:34:22;7.20;;;5.27;;
6414;SDS011;3240;48.790;9.210;2022-08-25T09:36:49;9.90;;;5.57;;
6414;SDS011;3240;48.790;9.210;2022-08-25T09:39:17;6.50;;;5.40;;
6414;SDS011;3240;48.790;9.210;2022-08-25T09:41:46;11.70;;;6.00;;
6414;SDS011;3240;48.790;9.210;2022-08-25T09:44:15;6.57;;;5.63;;
6414;SDS011;3240;48.790;9.210;2022-08-25T09:46:53;6.10;;;4.90;;
6414;SDS011;3240;48.790;9.210;2022-08-25T09:49:11;5.93;;;5.00;;
6414;SDS011;3240;48.790;9.210;2022-08-25T09:51:39;7.60;;;5.30;;
6414;SDS011;3240;48.790;9.210;2022-08-25T09:56:49;7.87;;;5.03;;
6414;SDS011;3240;48.790;9.210;2022-08-25T09:59:18;7.10;;;5.30;;
6414;SDS011;3240;48.790;9.210;2022-08-25T10:01:47;7.57;;;5.90;;
6414;SDS011;3240;48.790;9.210;2022-08-25T10:04:15;6.50;;;5.37;;
6414;SDS011;3240;48.790;9.210;2022-08-25T10:06:43;6.50;;;5.30;;
6414;SDS011;3240;48.790;9.210;2022-08-25T10:09:13;6.73;;;5.53;;
6414;SDS011;3240;48.790;9.210;2022-08-25T10:11:41;9.37;;;5.70;;
6414;SDS011;3240;48.790;9.210;2022-08-25T10:14:18;8.60;;;5.30;;
6414;SDS011;3240;48.790;9.210;2022-08-25T10:16:44;6.20;;;5.37;;
6414;SDS011;3240;48.790;9.210;2022-08-25T10:19:13;6.00;;;5.40;;
6414;SDS011;3240;48.790;9.210;2022-08-25T10:21:41;6.93;;;5.60;;
6414;SDS011;3240;48.790;9.210;2022-08-25T10:24:09;5.40;;;4.90;;
6414;SDS011;3240;48.790;9.210;2022-08-25T10:27:16;6.10;;;4.93;;
6414;SDS011;3240;48.790;9.210;2022-08-25T10:29:38;6.53;;;4.80;;
6414;SDS011;3240;48.790;9.210;2022-08-25T10:32:03;5.93;;;4.70;;
6414;SDS011;3240;48.790;9.210;2022-08-25T10:34:38;5.47;;;4.97;;
6414;SDS011;3240;48.790;9.210;2022-08-25T10:37:05;8.03;;;5.10;;
6414;SDS011;3240;48.790;9.210;2022-08-25T10:39:40;7.70;;;5.00;;
6414;SDS011;3240;48.790;9.210;2022-08-25T10:44:49;6.40;;;4.37;;
6414;SDS011;3240;48.790;9.210;2022-08-25T10:49:54;7.77;;;6.07;;
6414;SDS011;3240;48.790;9.210;2022-08-25T10:52:28;7.50;;;5.37;;
6414;SDS011;3240;48.790;9.210;2022-08-25T10:54:57;6.77;;;5.30;;
6414;SDS011;3240;48.790;9.210;2022-08-25T11:00:05;9.03;;;5.40;;
6414;SDS011;3240;48.790;9.210;2022-08-25T11:02:36;5.77;;;4.83;;
6414;SDS011;3240;48.790;9.210;2022-08-25T11:05:06;5.23;;;4.60;;
6414;SDS011;3240;48.790;9.210;2022-08-25T11:07:34;5.97;;;4.17;;
6414;SDS011;3240;48.790;9.210;2022-08-25T11:10:03;5.37;;;4.27;;
6414;SDS011;3240;48.790;9.210;2022-08-25T11:12:31;12.43;;;4.50;;
6414;SDS011;3240;48.790;9.210;2022-08-25T11:14:59;5.10;;;4.20;;
6414;SDS011;3240;48.790;9.210;2022-08-25T11:17:33;5.00;;;4.50;;
6414;SDS011;3240;48.790;9.210;2022-08-25T11:19:58;5.60;;;4.10;;
6414;SDS011;3240;48.790;9.210;2022-08-25T11:22:27;7.30;;;4.80;;
6414;SDS011;3240;48.790;9.210;2022-08-25T11:28:02;5.40;;;4.40;;
6414;SDS011;3240;48.790;9.210;2022-08-25T11:30:12;8.53;;;4.90;;
6414;SDS011;3240;48.790;9.210;2022-08-25T11:32:39;5.97;;;3.93;;
6414;SDS011;3240;48.790;9.210;2022-08-25T11:35:09;4.40;;;3.47;;
6414;SDS011;3240;48.790;9.210;2022-08-25T11:37:40;5.27;;;4.10;;
6414;SDS011;3240;48.790;9.210;2022-08-25T11:40:08;5.60;;;3.37;;
6414;SDS011;3240;48.790;9.210;2022-08-25T11:42:40;3.97;;;3.37;;
6414;SDS011;3240;48.790;9.210;2022-08-25T11:46:14;4.27;;;3.03;;
6414;SDS011;3240;48.790;9.210;2022-08-25T11:47:50;3.60;;;3.13;;
6414;SDS011;3240;48.790;9.210;2022-08-25T11:52:50;5.00;;;3.50;;
6414;SDS011;3240;48.790;9.210;2022-08-25T11:55:20;3.87;;;3.57;;
6414;SDS011;3240;48.790;9.210;2022-08-25T11:57:47;3.30;;;3.00;;
6414;SDS011;3240;48.790;9.210;2022-08-25T12:02:53;3.60;;;3.30;;
6414;SDS011;3240;48.790;9.210;2022-08-25T12:08:04;4.70;;;3.60;;
6414;SDS011;3240;48.790;9.210;2022-08-25T12:15:55;6.33;;;3.90;;
6414;SDS011;3240;48.790;9.210;2022-08-25T12:18:40;5.07;;;3.93;;
6414;SDS011;3240;48.790;9.210;2022-08-25T12:21:08;4.50;;;3.80;;
6414;SDS011;3240;48.790;9.210;2022-08-25T12:23:38;6.50;;;3.57;;
6414;SDS011;3240;48.790;9.210;2022-08-25T12:26:08;3.60;;;3.07;;
6414;SDS011;3240;48.790;9.210;2022-08-25T12:28:39;4.57;;;2.87;;
6414;SDS011;3240;48.790;9.210;2022-08-25T12:31:06;6.23;;;3.70;;
6414;SDS011;3240;48.790;9.210;2022-08-25T12:33:38;3.87;;;3.10;;
6414;SDS011;3240;48.790;9.210;2022-08-25T12:36:04;3.53;;;3.23;;
6414;SDS011;3240;48.790;9.210;2022-08-25T12:38:33;3.70;;;2.97;;
6414;SDS011;3240;48.790;9.210;2022-08-25T12:41:02;3.17;;;2.87;;
6414;SDS011;3240;48.790;9.210;2022-08-25T12:43:30;3.87;;;3.20;;
6414;SDS011;3240;48.790;9.210;2022-08-25T12:46:31;4.63;;;3.10;;
6414;SDS011;3240;48.790;9.210;2022-08-25T12:51:15;4.90;;;2.63;;
6414;SDS011;3240;48.790;9.210;2022-08-25T12:53:45;3.20;;;2.90;;
6414;SDS011;3240;48.790;9.210;2022-08-25T12:58:47;3.57;;;3.20;;
6414;SDS011;3240;48.790;9.210;2022-08-25T13:01:16;4.60;;;3.60;;
6414;SDS011;3240;48.790;9.210;2022-08-25T13:06:21;3.80;;;3.10;;
6414;SDS011;3240;48.790;9.210;2022-08-25T13:08:53;5.47;;;3.70;;
6414;SDS011;3240;48.790;9.210;2022-08-25T13:11:23;4.23;;;3.80;;
6414;SDS011;3240;48.790;9.210;2022-08-25T13:16:33;4.30;;;3.57;;
6414;SDS011;3240;48.790;9.210;2022-08-25T13:19:03;3.90;;;2.80;;
6414;SDS011;3240;48.790;9.210;2022-08-25T13:21:35;3.53;;;3.23;;
6414;SDS011;3240;48.790;9.210;2022-08-25T13:24:01;2.83;;;2.63;;
6414;SDS011;3240;48.790;9.210;2022-08-25T13:26:30;3.20;;;2.90;;
6414;SDS011;3240;48.790;9.210;2022-08-25T13:29:00;4.40;;;2.97;;
6414;SDS011;3240;48.790;9.210;2022-08-25T13:31:27;3.60;;;3.30;;
6414;SDS011;3240;48.790;9.210;2022-08-25T13:33:56;3.90;;;3.57;;
6414;SDS011;3240;48.790;9.210;2022-08-25T13:36:25;4.53;;;3.40;;
6414;SDS011;3240;48.790;9.210;2022-08-25T13:39:08;4.23;;;2.83;;
6414;SDS011;3240;48.790;9.210;2022-08-25T13:41:25;4.23;;;2.40;;
6414;SDS011;3240;48.790;9.210;2022-08-25T13:43:53;2.30;;;2.10;;
6414;SDS011;3240;48.790;9.210;2022-08-25T13:46:21;4.00;;;2.10;;
6414;SDS011;3240;48.790;9.210;2022-08-25T13:48:49;2.70;;;2.30;;
6414;SDS011;3240;48.790;9.210;2022-08-25T13:51:19;4.07;;;2.47;;
6414;SDS011;3240;48.790;9.210;2022-08-25T13:53:49;2.50;;;2.30;;
6414;SDS011;3240;48.790;9.210;2022-08-25T13:56:22;2.67;;;2.47;;
6414;SDS011;3240;48.790;9.210;2022-08-25T13:58:43;3.53;;;2.47;;
6414;SDS011;3240;48.790;9.210;2022-08-25T14:01:21;5.03;;;2.67;;
6414;SDS011;3240;48.790;9.210;2022-08-25T14:03:50;3.50;;;2.70;;
6414;SDS011;3240;48.790;9.210;2022-08-25T14:06:21;2.87;;;2.67;;
6414;SDS011;3240;48.790;9.210;2022-08-25T14:09:01;4.23;;;2.67;;
6414;SDS011;3240;48.790;9.210;2022-08-25T14:13:58;5.47;;;3.00;;
6414;SDS011;3240;48.790;9.210;2022-08-25T14:16:18;4.80;;;2.80;;
6414;SDS011;3240;48.790;9.210;2022-08-25T14:18:46;3.43;;;2.97;;
6414;SDS011;3240;48.790;9.210;2022-08-25T14:21:13;3.73;;;2.97;;
6414;SDS011;3240;48.790;9.210;2022-08-25T14:23:41;3.03;;;2.70;;
6414;SDS011;3240;48.790;9.210;2022-08-25T14:26:09;3.30;;;3.10;;
6414;SDS011;3240;48.790;9.210;2022-08-25T14:28:37;2.90;;;2.70;;
6414;SDS011;3240;48.790;9.210;2022-08-25T14:31:07;2.83;;;2.63;;
6414;SDS011;3240;48.790;9.210;2022-08-25T14:33:36;3.30;;;3.00;;
6414;SDS011;3240;48.790;9.210;2022-08-25T14:36:03;3.20;;;2.90;;
6414;SDS011;3240;48.790;9.210;2022-08-25T14:38:31;4.70;;;2.87;;
6414;SDS011;3240;48.790;9.210;2022-08-25T14:40:58;3.40;;;2.70;;
6414;SDS011;3240;48.790;9.210;2022-08-25T14:43:26;3.20;;;2.90;;
6414;SDS011;3240;48.790;9.210;2022-08-25T14:45:54;3.60;;;2.77;;
6414;SDS011;3240;48.790;9.210;2022-08-25T14:48:24;3.23;;;2.93;;
6414;SDS011;3240;48.790;9.210;2022-08-25T14:50:51;2.40;;;2.27;;
6414;SDS011;3240;48.790;9.210;2022-08-25T14:53:18;3.20;;;2.90;;
6414;SDS011;3240;48.790;9.210;2022-08-25T14:55:46;3.57;;;2.77;;
6414;SDS011;3240;48.790;9.210;2022-08-25T14:58:14;3.10;;;2.80;;
6414;SDS011;3240;48.790;9.210;2022-08-25T15:00:43;3.00;;;2.80;;
6414;SDS011;3240;48.790;9.210;2022-08-25T15:03:12;5.83;;;3.10;;
6414;SDS011;3240;48.790;9.210;2022-08-25T15:05:39;5.93;;;2.40;;
6414;SDS011;3240;48.790;9.210;2022-08-25T15:08:08;4.40;;;3.20;;
6414;SDS011;3240;48.790;9.210;2022-08-25T15:10:41;2.97;;;2.67;;
6414;SDS011;3240;48.790;9.210;2022-08-25T15:13:09;2.60;;;2.40;;
6414;SDS011;3240;48.790;9.210;2022-08-25T15:15:37;4.53;;;2.70;;
6414;SDS011;3240;48.790;9.210;2022-08-25T15:18:05;3.27;;;2.97;;
6414;SDS011;3240;48.790;9.210;2022-08-25T15:20:33;2.70;;;2.50;;
6414;SDS011;3240;48.790;9.210;2022-08-25T15:23:01;3.20;;;2.90;;
6414;SDS011;3240;48.790;9.210;2022-08-25T15:25:29;3.40;;;2.60;;
6414;SDS011;3240;48.790;9.210;2022-08-25T15:27:57;3.27;;;2.97;;
6414;SDS011;3240;48.790;9.210;2022-08-25T15:30:25;3.90;;;3.20;;
6414;SDS011;3240;48.790;9.210;2022-08-25T15:32:53;4.50;;;2.90;;
6414;SDS011;3240;48.790;9.210;2022-08-25T15:35:21;3.50;;;3.20;;
6414;SDS011;3240;48.790;9.210;2022-08-25T15:37:49;4.20;;;3.10;;
6414;SDS011;3240;48.790;9.210;2022-08-25T15:40:17;3.37;;;3.07;;
6414;SDS011;3240;48.790;9.210;2022-08-25T15:42:45;2.60;;;2.40;;
6414;SDS011;3240;48.790;9.210;2022-08-25T15:45:13;3.27;;;2.70;;
6414;SDS011;3240;48.790;9.210;2022-08-25T15:47:41;4.90;;;3.20;;
6414;SDS011;3240;48.790;9.210;2022-08-25T15:50:10;4.23;;;3.23;;
6414;SDS011;3240;48.790;9.210;2022-08-25T15:52:38;2.80;;;2.60;;
6414;SDS011;3240;48.790;9.210;2022-08-25T15:55:06;2.80;;;2.60;;
6414;SDS011;3240;48.790;9.210;2022-08-25T15:57:34;3.50;;;3.10;;
6414;SDS011;3240;48.790;9.210;2022-08-25T16:00:03;4.37;;;2.77;;
6414;SDS011;3240;48.790;9.210;2022-08-25T16:02:31;4.80;;;3.40;;
6414;SDS011;3240;48.790;9.210;2022-08-25T16:04:59;3.10;;;2.80;;